createdAt,value
2017-10-15T00:00:16.076Z,99.90
2017-10-15T00:02:44.232Z,99.90
2017-10-15T00:05:12.390Z,99.90
2017-10-15T00:07:40.524Z,99.90
2017-10-15T00:10:08.666Z,99.90
2017-10-15T00:12:36.791Z,99.90
2017-10-15T00:15:04.936Z,99.90
2017-10-15T00:17:33.068Z,99.90
2017-10-15T00:20:01.979Z,99.90
2017-10-15T00:22:30.119Z,99.90
2017-10-15T00:24:59.018Z,99.90
2017-10-15T00:27:27.943Z,99.90
2017-10-15T00:29:56.076Z,99.90
2017-10-15T00:32:24.993Z,99.90
2017-10-15T00:34:53.120Z,99.90
2017-10-15T00:37:21.279Z,99.90
2017-10-15T00:39:49.431Z,99.90
2017-10-15T00:42:17.568Z,99.90
2017-10-15T00:44:45.742Z,99.90
2017-10-15T00:47:14.688Z,99.90
2017-10-15T00:49:42.844Z,99.90
2017-10-15T00:52:10.977Z,99.90
2017-10-15T00:54:39.905Z,99.90
2017-10-15T00:57:08.025Z,99.90
2017-10-15T00:59:36.152Z,99.90
2017-10-15T01:02:04.272Z,99.90
2017-10-15T01:04:33.174Z,99.90
2017-10-15T01:07:02.375Z,99.90
2017-10-15T01:09:31.252Z,99.90
2017-10-15T01:12:00.142Z,99.90
2017-10-15T01:14:29.050Z,99.90
2017-10-15T01:16:57.923Z,99.90
2017-10-15T01:19:26.841Z,99.90
2017-10-15T01:21:55.706Z,99.90
2017-10-15T01:24:24.672Z,99.90
2017-10-15T01:26:52.821Z,99.90
2017-10-15T01:29:20.942Z,99.90
2017-10-15T01:31:49.839Z,99.90
2017-10-15T01:34:18.722Z,99.90
2017-10-15T01:36:47.613Z,99.90
2017-10-15T01:39:16.496Z,99.90
2017-10-15T01:41:45.704Z,99.90
2017-10-15T01:44:14.581Z,99.90
2017-10-15T01:46:42.707Z,99.90
2017-10-15T01:49:10.840Z,99.90
2017-10-15T01:51:39.723Z,99.90
2017-10-15T01:54:08.619Z,99.90
2017-10-15T01:56:37.531Z,99.90
2017-10-15T01:59:06.409Z,99.90
2017-10-15T02:01:34.537Z,99.90
2017-10-15T02:04:02.661Z,99.90
2017-10-15T02:06:30.800Z,99.90
2017-10-15T02:08:59.895Z,99.90
2017-10-15T02:11:28.802Z,99.90
2017-10-15T02:13:57.704Z,99.90
2017-10-15T02:16:25.843Z,99.90
2017-10-15T02:18:53.958Z,99.90
2017-10-15T02:21:22.079Z,99.90
2017-10-15T02:23:50.212Z,99.90
2017-10-15T02:26:18.337Z,99.90
2017-10-15T02:28:46.469Z,99.90
2017-10-15T02:31:14.598Z,99.90
2017-10-15T02:33:42.747Z,99.90
2017-10-15T02:36:10.876Z,99.90
2017-10-15T02:38:39.014Z,99.90
2017-10-15T02:41:07.143Z,99.90
2017-10-15T02:43:35.276Z,99.90
2017-10-15T02:46:03.404Z,99.90
2017-10-15T02:48:31.527Z,99.90
2017-10-15T02:50:59.684Z,99.90
2017-10-15T02:53:28.573Z,99.90
2017-10-15T02:55:56.728Z,99.90
2017-10-15T02:58:25.638Z,99.90
2017-10-15T03:00:53.791Z,99.90
2017-10-15T03:03:22.673Z,99.90
2017-10-15T03:05:51.563Z,99.90
2017-10-15T03:08:20.480Z,99.90
2017-10-15T03:10:49.357Z,99.90
2017-10-15T03:13:18.264Z,99.90
2017-10-15T03:15:46.392Z,99.90
2017-10-15T03:18:14.527Z,99.90
2017-10-15T03:20:42.704Z,99.90
2017-10-15T03:23:10.831Z,99.90
2017-10-15T03:25:39.752Z,99.90
2017-10-15T03:28:07.873Z,99.90
2017-10-15T03:30:35.997Z,99.90
2017-10-15T03:33:04.127Z,99.90
2017-10-15T03:35:32.255Z,99.90
2017-10-15T03:38:00.389Z,99.90
2017-10-15T03:40:29.279Z,99.90
2017-10-15T03:42:58.476Z,99.90
2017-10-15T03:45:27.364Z,99.90
2017-10-15T03:47:56.256Z,99.90
2017-10-15T03:50:25.155Z,99.90
2017-10-15T03:52:53.284Z,99.90
2017-10-15T03:55:21.432Z,99.90
2017-10-15T03:57:49.561Z,99.90
2017-10-15T04:00:18.472Z,99.90
2017-10-15T04:02:46.592Z,99.90
2017-10-15T04:05:14.715Z,99.90
2017-10-15T04:07:42.858Z,99.90
2017-10-15T04:10:10.982Z,99.90
2017-10-15T04:12:39.424Z,99.90
2017-10-15T04:15:08.317Z,99.90
2017-10-15T04:17:36.444Z,99.90
2017-10-15T04:20:04.580Z,99.90
2017-10-15T04:22:32.699Z,99.90
2017-10-15T04:25:00.829Z,99.90
2017-10-15T04:27:28.975Z,99.90
2017-10-15T04:29:57.124Z,99.90
2017-10-15T04:32:25.280Z,99.90
2017-10-15T04:34:53.413Z,99.90
2017-10-15T04:37:22.461Z,99.90
2017-10-15T04:39:50.592Z,99.90
2017-10-15T04:42:18.727Z,99.90
2017-10-15T04:44:47.620Z,99.90
2017-10-15T04:47:16.517Z,99.90
2017-10-15T04:49:44.648Z,99.90
2017-10-15T04:52:13.604Z,99.90
2017-10-15T04:54:41.712Z,99.90
2017-10-15T04:57:09.835Z,99.90
2017-10-15T04:59:37.978Z,99.90
2017-10-15T05:02:06.096Z,99.90
2017-10-15T05:04:34.222Z,99.90
2017-10-15T05:07:02.351Z,99.90
2017-10-15T05:09:30.769Z,99.90
2017-10-15T05:11:59.656Z,99.90
2017-10-15T05:14:28.540Z,99.90
2017-10-15T05:16:56.677Z,99.90
2017-10-15T05:19:24.797Z,99.90
2017-10-15T05:21:53.699Z,99.90
2017-10-15T05:24:22.602Z,99.90
2017-10-15T05:26:50.734Z,99.90
2017-10-15T05:29:18.860Z,99.90
2017-10-15T05:31:47.887Z,99.90
2017-10-15T05:34:16.198Z,99.90
2017-10-15T05:36:44.336Z,99.90
2017-10-15T05:39:13.235Z,99.90
2017-10-15T05:41:41.433Z,99.90
2017-10-15T05:44:09.997Z,99.90
2017-10-15T05:46:38.147Z,99.90
2017-10-15T05:49:06.267Z,99.90
2017-10-15T05:51:34.392Z,99.90
2017-10-15T05:54:02.515Z,99.90
2017-10-15T05:56:31.446Z,99.90
2017-10-15T05:58:59.562Z,99.90
2017-10-15T06:01:27.709Z,99.90
2017-10-15T06:03:55.850Z,99.90
2017-10-15T06:06:24.033Z,99.90
2017-10-15T06:08:52.139Z,99.90
2017-10-15T06:11:20.279Z,99.90
2017-10-15T06:13:48.403Z,99.90
2017-10-15T06:16:17.277Z,99.90
2017-10-15T06:18:45.442Z,99.90
2017-10-15T06:21:13.570Z,99.90
2017-10-15T06:23:41.700Z,99.90
2017-10-15T06:26:09.838Z,99.90
2017-10-15T06:28:37.959Z,99.90
2017-10-15T06:31:06.853Z,99.90
2017-10-15T06:33:35.762Z,99.90
2017-10-15T06:36:03.893Z,99.90
2017-10-15T06:38:32.019Z,99.90
2017-10-15T06:41:00.138Z,99.90
2017-10-15T06:43:28.273Z,99.90
2017-10-15T06:45:56.406Z,99.90
2017-10-15T06:48:24.674Z,99.90
2017-10-15T06:50:52.780Z,99.90
2017-10-15T06:53:20.910Z,99.90
2017-10-15T06:55:49.823Z,99.90
2017-10-15T06:58:18.007Z,99.90
2017-10-15T07:00:46.881Z,99.90
2017-10-15T07:03:15.784Z,99.90
2017-10-15T07:05:43.897Z,99.90
2017-10-15T07:08:12.036Z,99.90
2017-10-15T07:10:40.168Z,99.90
2017-10-15T07:13:09.065Z,99.90
2017-10-15T07:15:37.966Z,99.90
2017-10-15T07:18:06.866Z,99.90
2017-10-15T07:20:35.018Z,99.90
2017-10-15T07:23:03.940Z,99.90
2017-10-15T07:25:32.084Z,99.90
2017-10-15T07:28:00.984Z,99.90
2017-10-15T07:30:29.173Z,99.90
2017-10-15T07:32:57.307Z,99.90
2017-10-15T07:35:26.211Z,99.90
2017-10-15T07:37:55.113Z,99.90
2017-10-15T07:40:23.259Z,99.90
2017-10-15T07:42:52.171Z,99.90
2017-10-15T07:45:20.314Z,99.90
2017-10-15T07:47:48.489Z,99.90
2017-10-15T07:50:16.896Z,99.90
2017-10-15T07:52:45.100Z,99.90
2017-10-15T07:55:13.252Z,99.90
2017-10-15T07:57:41.389Z,99.90
2017-10-15T08:00:09.564Z,99.90
2017-10-15T08:02:37.742Z,99.90
2017-10-15T08:05:06.139Z,99.90
2017-10-15T08:07:35.043Z,99.90
2017-10-15T08:10:03.199Z,99.90
2017-10-15T08:12:32.120Z,99.90
2017-10-15T08:15:00.231Z,99.90
2017-10-15T08:17:29.177Z,99.90
2017-10-15T08:19:57.318Z,99.90
2017-10-15T08:22:26.221Z,99.90
2017-10-15T08:24:54.353Z,99.90
2017-10-15T08:27:22.495Z,99.90
2017-10-15T08:29:59.932Z,99.90
2017-10-15T08:32:28.053Z,99.90
2017-10-15T08:34:56.198Z,99.90
2017-10-15T08:37:25.504Z,99.90
2017-10-15T08:39:53.666Z,99.90
2017-10-15T08:42:21.804Z,99.90
2017-10-15T08:44:50.037Z,99.90
2017-10-15T08:47:18.172Z,99.90
2017-10-15T08:49:47.050Z,99.90
2017-10-15T08:52:15.187Z,99.90
2017-10-15T08:54:43.316Z,99.90
2017-10-15T08:57:12.508Z,99.90
2017-10-15T08:59:41.430Z,99.90
2017-10-15T09:02:09.572Z,99.90
2017-10-15T09:04:38.487Z,99.90
2017-10-15T09:07:06.646Z,99.90
2017-10-15T09:09:34.807Z,99.90
2017-10-15T09:12:03.720Z,99.90
2017-10-15T09:14:31.923Z,99.90
2017-10-15T09:17:00.052Z,99.90
2017-10-15T09:19:28.984Z,99.90
2017-10-15T09:21:57.152Z,99.90
2017-10-15T09:24:25.374Z,99.00
2017-10-15T09:26:53.546Z,98.70
2017-10-15T09:29:22.494Z,97.40
2017-10-15T09:31:50.640Z,97.40
2017-10-15T09:34:19.568Z,96.30
2017-10-15T09:36:48.497Z,96.00
2017-10-15T09:39:16.637Z,96.00
2017-10-15T09:41:44.785Z,95.70
2017-10-15T09:44:12.920Z,95.60
2017-10-15T09:46:41.820Z,94.70
2017-10-15T09:49:10.715Z,94.20
2017-10-15T09:51:38.849Z,94.20
2017-10-15T09:54:06.995Z,94.50
2017-10-15T09:56:35.288Z,94.10
2017-10-15T09:59:03.392Z,94.00
2017-10-15T10:01:32.299Z,93.10
2017-10-15T10:04:00.442Z,93.10
2017-10-15T10:06:28.605Z,92.10
2017-10-15T10:08:56.728Z,92.20
2017-10-15T10:11:24.894Z,92.20
2017-10-15T10:13:53.820Z,91.20
2017-10-15T10:16:22.750Z,92.00
2017-10-15T10:18:51.678Z,91.50
2017-10-15T10:21:19.812Z,91.50
2017-10-15T10:23:48.811Z,90.70
2017-10-15T10:26:17.075Z,90.70
2017-10-15T10:28:46.062Z,90.60
2017-10-15T10:31:14.237Z,90.50
2017-10-15T10:33:42.406Z,90.10
2017-10-15T10:36:11.073Z,90.50
2017-10-15T10:38:39.236Z,89.10
2017-10-15T10:41:07.390Z,87.80
2017-10-15T10:43:35.545Z,87.60
2017-10-15T10:46:04.463Z,86.40
2017-10-15T10:48:32.111Z,86.40
2017-10-15T10:51:00.268Z,86.00
2017-10-15T10:53:29.226Z,84.10
2017-10-15T10:55:57.601Z,84.00
2017-10-15T10:58:26.118Z,84.20
2017-10-15T11:00:54.295Z,83.80
2017-10-15T11:03:22.436Z,81.20
2017-10-15T11:05:51.372Z,80.90
2017-10-15T11:08:19.542Z,80.90
2017-10-15T11:10:47.667Z,79.30
2017-10-15T11:13:15.835Z,78.10
2017-10-15T11:15:44.290Z,76.30
2017-10-15T11:18:12.417Z,75.60
2017-10-15T11:20:42.254Z,74.20
2017-10-15T11:23:15.602Z,74.10
2017-10-15T11:25:45.456Z,72.60
2017-10-15T11:28:13.641Z,72.70
2017-10-15T11:30:42.012Z,73.00
2017-10-15T11:33:10.183Z,75.20
2017-10-15T11:35:38.329Z,72.40
2017-10-15T11:38:07.565Z,69.90
2017-10-15T11:40:35.716Z,69.90
2017-10-15T11:43:04.618Z,70.20
2017-10-15T11:45:32.779Z,70.00
2017-10-15T11:48:00.934Z,68.20
2017-10-15T11:50:29.872Z,67.50
2017-10-15T11:52:58.010Z,67.40
2017-10-15T11:55:26.952Z,64.80
2017-10-15T11:57:55.092Z,64.70
2017-10-15T12:00:23.247Z,64.50
2017-10-15T12:02:51.405Z,64.40
2017-10-15T12:05:20.475Z,61.20
2017-10-15T12:07:48.625Z,61.20
2017-10-15T12:10:16.763Z,62.20
2017-10-15T12:12:44.899Z,62.30
2017-10-15T12:15:13.055Z,59.80
2017-10-15T12:17:41.215Z,59.90
2017-10-15T12:20:09.393Z,57.80
2017-10-15T12:22:37.499Z,54.80
2017-10-15T12:25:06.464Z,49.90
2017-10-15T12:27:35.360Z,48.70
2017-10-15T12:30:03.542Z,48.60
2017-10-15T12:32:31.688Z,49.50
2017-10-15T12:34:59.834Z,49.20
2017-10-15T12:37:27.966Z,45.90
2017-10-15T12:39:56.460Z,47.20
2017-10-15T12:42:25.340Z,45.50
2017-10-15T12:44:54.242Z,46.90
2017-10-15T12:47:23.163Z,48.10
2017-10-15T12:49:51.304Z,48.00
2017-10-15T12:52:20.211Z,49.00
2017-10-15T12:54:48.390Z,49.10
2017-10-15T12:57:17.297Z,48.10
2017-10-15T12:59:45.431Z,48.00
2017-10-15T13:02:14.325Z,45.90
2017-10-15T13:04:43.259Z,46.80
2017-10-15T13:07:11.375Z,46.80
2017-10-15T13:09:40.301Z,48.00
2017-10-15T13:12:08.447Z,47.90
2017-10-15T13:14:37.387Z,45.20
2017-10-15T13:17:05.514Z,45.10
2017-10-15T13:19:34.441Z,44.40
2017-10-15T13:22:02.584Z,44.40
2017-10-15T13:24:30.707Z,45.10
2017-10-15T13:26:59.642Z,42.70
2017-10-15T13:29:27.786Z,42.70
2017-10-15T13:31:55.934Z,39.90
2017-10-15T13:34:24.851Z,39.60
2017-10-15T13:36:53.048Z,39.00
2017-10-15T13:39:21.988Z,37.50
2017-10-15T13:41:50.084Z,36.90
2017-10-15T13:44:18.232Z,36.70
2017-10-15T13:46:46.427Z,37.20
2017-10-15T13:49:15.414Z,40.90
2017-10-15T13:51:43.575Z,40.90
2017-10-15T13:54:11.688Z,42.80
2017-10-15T13:56:40.609Z,44.40
2017-10-15T13:59:08.785Z,44.30
2017-10-15T14:01:36.916Z,46.40
2017-10-15T14:04:05.092Z,47.20
2017-10-15T14:06:33.223Z,47.60
2017-10-15T14:09:01.382Z,49.40
2017-10-15T14:11:29.505Z,49.20
2017-10-15T14:13:57.657Z,49.90
2017-10-15T14:16:25.898Z,51.20
2017-10-15T14:18:54.060Z,51.10
2017-10-15T14:21:22.197Z,52.30
2017-10-15T14:23:51.130Z,54.50
2017-10-15T14:26:19.305Z,54.50
2017-10-15T14:28:47.752Z,53.60
2017-10-15T14:31:16.674Z,56.50
2017-10-15T14:33:44.832Z,56.50
2017-10-15T14:36:12.969Z,56.70
2017-10-15T14:38:44.865Z,56.00
2017-10-15T14:41:12.992Z,56.60
2017-10-15T14:43:41.126Z,57.20
2017-10-15T14:46:09.290Z,56.70
2017-10-15T14:48:37.439Z,56.50
2017-10-15T14:51:06.338Z,57.00
2017-10-15T14:53:34.464Z,57.00
2017-10-15T14:56:02.616Z,56.70
2017-10-15T14:58:30.763Z,57.10
2017-10-15T15:01:05.286Z,58.90
2017-10-15T15:03:46.991Z,57.80
2017-10-15T15:06:17.926Z,58.30
2017-10-15T15:08:52.478Z,58.30
2017-10-15T15:11:21.239Z,57.40
2017-10-15T15:13:58.880Z,58.90
2017-10-15T15:16:28.568Z,57.50
2017-10-15T15:18:56.693Z,57.80
2017-10-15T15:21:24.842Z,56.90
2017-10-15T15:23:54.596Z,54.90
2017-10-15T15:26:33.402Z,54.50
2017-10-15T15:29:12.990Z,55.00
2017-10-15T15:31:49.203Z,55.80
2017-10-15T15:34:25.310Z,57.20
2017-10-15T15:37:01.335Z,56.80
2017-10-15T15:39:31.360Z,58.90
2017-10-15T15:42:04.732Z,60.10
2017-10-15T15:44:34.564Z,63.30
2017-10-15T15:47:03.661Z,63.10
2017-10-15T15:49:32.722Z,65.10
2017-10-15T15:52:01.360Z,66.30
2017-10-15T15:54:29.528Z,67.70
2017-10-15T15:56:57.689Z,69.20
2017-10-15T15:59:25.844Z,70.70
2017-10-15T16:01:54.023Z,71.50
2017-10-15T16:04:22.156Z,72.90
2017-10-15T16:06:50.659Z,73.90
2017-10-15T16:09:18.833Z,75.30
2017-10-15T16:11:47.008Z,76.50
2017-10-15T16:14:15.193Z,77.40
2017-10-15T16:16:43.452Z,78.80
2017-10-15T16:19:12.351Z,81.20
2017-10-15T16:21:40.549Z,81.00
2017-10-15T16:24:08.681Z,82.30
2017-10-15T16:29:36.493Z,84.60
2017-10-15T16:32:04.685Z,86.10
2017-10-15T16:34:32.836Z,86.80
2017-10-15T16:37:01.002Z,88.10
2017-10-15T16:39:29.144Z,89.20
2017-10-15T16:41:58.078Z,90.60
2017-10-15T16:44:26.738Z,90.50
2017-10-15T16:46:54.905Z,90.90
2017-10-15T16:49:23.884Z,91.90
2017-10-15T16:51:52.783Z,92.40
2017-10-15T16:54:42.448Z,93.00
2017-10-15T16:57:11.355Z,93.00
2017-10-15T16:59:42.549Z,93.60
2017-10-15T17:02:10.884Z,93.60
2017-10-15T17:04:47.272Z,94.00
2017-10-15T17:07:17.177Z,94.20
2017-10-15T17:09:49.944Z,94.50
2017-10-15T17:12:18.523Z,95.00
2017-10-15T17:14:47.500Z,95.40
2017-10-15T17:17:15.655Z,95.50
2017-10-15T17:19:56.274Z,96.00
2017-10-15T17:22:24.484Z,96.10
2017-10-15T17:24:52.716Z,96.30
2017-10-15T17:27:20.878Z,96.50
2017-10-15T17:29:49.087Z,96.80
2017-10-15T17:32:18.269Z,97.20
2017-10-15T17:34:46.390Z,97.10
2017-10-15T17:37:15.384Z,97.30
2017-10-15T17:39:44.290Z,97.40
2017-10-15T17:42:13.258Z,97.50
2017-10-15T17:44:41.417Z,97.50
2017-10-15T17:47:10.364Z,97.80
2017-10-15T17:52:34.415Z,98.00
2017-10-15T17:55:02.555Z,98.30
2017-10-15T17:57:30.699Z,98.40
2017-10-15T17:59:58.877Z,98.40
2017-10-15T18:02:32.688Z,98.40
2017-10-15T18:05:00.865Z,98.50
2017-10-15T18:07:29.063Z,98.80
2017-10-15T18:09:57.241Z,98.80
2017-10-15T18:12:25.402Z,99.10
2017-10-15T18:14:54.616Z,99.20
2017-10-15T18:17:22.776Z,99.20
2017-10-15T18:19:50.949Z,99.30
2017-10-15T18:22:19.133Z,99.60
2017-10-15T18:24:47.301Z,99.80
2017-10-15T18:27:15.538Z,99.90
2017-10-15T18:29:44.427Z,99.90
2017-10-15T18:32:12.627Z,99.90
2017-10-15T18:34:40.789Z,99.90
2017-10-15T18:37:09.029Z,99.90
2017-10-15T18:39:37.987Z,99.90
2017-10-15T18:42:06.202Z,99.90
2017-10-15T18:44:35.240Z,99.90
2017-10-15T18:47:04.253Z,99.90
2017-10-15T18:49:32.775Z,99.90
2017-10-15T18:52:00.972Z,99.90
2017-10-15T18:54:29.252Z,99.90
2017-10-15T18:56:57.425Z,99.90
2017-10-15T18:59:25.631Z,99.90
2017-10-15T19:01:53.854Z,99.90
2017-10-15T19:04:22.084Z,99.90
2017-10-15T19:06:50.229Z,99.90
2017-10-15T19:09:18.386Z,99.90
2017-10-15T19:11:46.604Z,99.90
2017-10-15T19:14:14.797Z,99.90
2017-10-15T19:16:42.934Z,99.90
2017-10-15T19:19:11.914Z,99.90
2017-10-15T19:21:40.091Z,99.90
2017-10-15T19:24:08.278Z,99.90
2017-10-15T19:26:36.475Z,99.90
2017-10-15T19:29:04.665Z,99.90
2017-10-15T19:31:33.704Z,99.90
2017-10-15T19:34:01.885Z,99.90
2017-10-15T19:36:30.056Z,99.90
2017-10-15T19:38:58.243Z,99.90
2017-10-15T19:41:26.452Z,99.90
2017-10-15T19:43:54.624Z,99.90
2017-10-15T19:46:22.846Z,99.90
2017-10-15T19:48:51.983Z,99.90
2017-10-15T19:51:20.249Z,99.90
2017-10-15T19:53:51.139Z,99.90
2017-10-15T19:56:19.304Z,99.90
2017-10-15T19:58:47.536Z,99.90
2017-10-15T20:01:16.468Z,99.90
2017-10-15T20:03:44.602Z,99.90
2017-10-15T20:06:13.540Z,99.90
2017-10-15T20:08:41.669Z,99.90
2017-10-15T20:11:09.815Z,99.90
2017-10-15T20:13:37.971Z,99.90
2017-10-15T20:16:06.130Z,99.90
2017-10-15T20:18:34.304Z,99.90
2017-10-15T20:21:02.449Z,99.90
2017-10-15T20:23:30.634Z,99.90
2017-10-15T20:25:59.133Z,99.90
2017-10-15T20:28:27.557Z,99.90
2017-10-15T20:30:55.700Z,99.90
2017-10-15T20:33:23.888Z,99.90
2017-10-15T20:35:52.236Z,99.90
2017-10-15T20:38:20.644Z,99.90
2017-10-15T20:40:48.880Z,99.90
2017-10-15T20:43:17.204Z,99.90
2017-10-15T20:45:45.343Z,99.90
2017-10-15T20:48:13.570Z,99.90
2017-10-15T20:50:43.430Z,99.90
2017-10-15T20:53:11.603Z,99.90
2017-10-15T20:55:39.758Z,99.90
2017-10-15T20:58:07.883Z,99.90
2017-10-15T21:00:36.094Z,99.90
2017-10-15T21:03:05.098Z,99.90
2017-10-15T21:05:33.341Z,99.90
2017-10-15T21:08:01.480Z,99.90
2017-10-15T21:10:29.711Z,99.90
2017-10-15T21:12:58.807Z,99.90
2017-10-15T21:15:26.939Z,99.90
2017-10-15T21:17:55.089Z,99.90
2017-10-15T21:20:23.456Z,99.90
2017-10-15T21:22:51.583Z,99.90
2017-10-15T21:25:20.737Z,99.90
2017-10-15T21:27:48.870Z,99.90
2017-10-15T21:30:17.056Z,99.90
2017-10-15T21:32:45.271Z,99.90
2017-10-15T21:35:14.179Z,99.90
2017-10-15T21:37:42.318Z,99.90
2017-10-15T21:40:10.479Z,99.90
2017-10-15T21:42:38.729Z,99.90
2017-10-15T21:45:07.634Z,99.90
2017-10-15T21:47:35.917Z,99.90
2017-10-15T21:50:04.045Z,99.90
2017-10-15T21:52:33.921Z,99.90
2017-10-15T21:55:03.067Z,99.90
2017-10-15T21:57:31.991Z,99.90
2017-10-15T22:00:00.476Z,99.90
2017-10-15T22:02:29.159Z,99.90
2017-10-15T22:04:57.283Z,99.90
2017-10-15T22:07:26.183Z,99.90
2017-10-15T22:09:55.073Z,99.90
2017-10-15T22:12:24.041Z,99.90
2017-10-15T22:14:52.279Z,99.90
2017-10-15T22:17:20.428Z,99.90
2017-10-15T22:19:48.547Z,99.90
2017-10-15T22:22:22.435Z,99.90
2017-10-15T22:24:50.578Z,99.90
2017-10-15T22:27:18.711Z,99.90
2017-10-15T22:29:46.828Z,99.90
2017-10-15T22:32:15.018Z,99.90
2017-10-15T22:34:43.289Z,99.90
2017-10-15T22:37:11.409Z,99.90
2017-10-15T22:39:39.551Z,99.90
2017-10-15T22:42:07.695Z,99.90
2017-10-15T22:44:35.810Z,99.90
2017-10-15T22:47:03.944Z,99.90
2017-10-15T22:49:32.054Z,99.90
2017-10-15T22:52:00.188Z,99.90
2017-10-15T22:54:28.311Z,99.90
2017-10-15T22:56:56.461Z,99.90
2017-10-15T22:59:24.612Z,99.90
2017-10-15T23:01:52.728Z,99.90
2017-10-15T23:04:20.866Z,99.90
2017-10-15T23:06:48.992Z,99.90
2017-10-15T23:09:17.901Z,99.90
2017-10-15T23:11:46.024Z,99.90
2017-10-15T23:14:14.172Z,99.90
2017-10-15T23:16:42.285Z,99.90
2017-10-15T23:19:11.193Z,99.90
2017-10-15T23:21:40.084Z,99.90
2017-10-15T23:24:08.227Z,99.90
2017-10-15T23:26:36.357Z,99.90
2017-10-15T23:29:04.487Z,99.90
2017-10-15T23:31:33.393Z,99.90
2017-10-15T23:34:01.586Z,99.90
2017-10-15T23:36:29.696Z,99.90
2017-10-15T23:38:57.854Z,99.90
2017-10-15T23:41:25.982Z,99.90
2017-10-15T23:43:54.125Z,99.90
2017-10-15T23:46:22.245Z,99.90
2017-10-15T23:48:50.373Z,99.90
2017-10-15T23:51:18.512Z,99.90
2017-10-15T23:53:46.641Z,99.90
2017-10-15T23:56:15.607Z,99.90
2017-10-15T23:58:43.721Z,99.90
